sensor_id;sensor_type;location;lat;lon;timestamp;P1;durP1;ratioP1;P2;durP2;ratioP2
5945;SDS011;2998;48.206;16.394;2023-03-01T00:01:10;26.40;;;16.90;;
5945;SDS011;2998;48.206;16.394;2023-03-01T00:03:38;30.30;;;17.53;;
5945;SDS011;2998;48.206;16.394;2023-03-01T00:06:06;28.83;;;17.30;;
5945;SDS011;2998;48.206;16.394;2023-03-01T00:08:34;31.40;;;18.83;;
5945;SDS011;2998;48.206;16.394;2023-03-01T00:11:05;25.10;;;17.47;;
5945;SDS011;2998;48.206;16.394;2023-03-01T00:13:35;27.60;;;18.23;;
5945;SDS011;2998;48.206;16.394;2023-03-01T00:16:04;31.93;;;18.50;;
5945;SDS011;2998;48.206;16.394;2023-03-01T00:18:33;25.43;;;16.63;;
5945;SDS011;2998;48.206;16.394;2023-03-01T00:21:01;26.63;;;15.83;;
5945;SDS011;2998;48.206;16.394;2023-03-01T00:23:29;25.83;;;16.37;;
5945;SDS011;2998;48.206;16.394;2023-03-01T00:25:57;24.10;;;16.07;;
5945;SDS011;2998;48.206;16.394;2023-03-01T00:28:26;28.80;;;17.37;;
5945;SDS011;2998;48.206;16.394;2023-03-01T00:30:54;27.17;;;17.83;;
5945;SDS011;2998;48.206;16.394;2023-03-01T00:33:22;26.80;;;17.83;;
5945;SDS011;2998;48.206;16.394;2023-03-01T00:35:50;26.20;;;17.37;;
5945;SDS011;2998;48.206;16.394;2023-03-01T00:38:18;26.27;;;17.23;;
5945;SDS011;2998;48.206;16.394;2023-03-01T00:40:46;26.07;;;17.20;;
5945;SDS011;2998;48.206;16.394;2023-03-01T00:43:14;28.80;;;18.50;;
5945;SDS011;2998;48.206;16.394;2023-03-01T00:45:44;26.40;;;17.67;;
5945;SDS011;2998;48.206;16.394;2023-03-01T00:48:12;29.83;;;18.13;;
5945;SDS011;2998;48.206;16.394;2023-03-01T00:50:40;28.70;;;17.23;;
5945;SDS011;2998;48.206;16.394;2023-03-01T00:53:07;31.60;;;19.63;;
5945;SDS011;2998;48.206;16.394;2023-03-01T00:55:35;29.33;;;18.63;;
5945;SDS011;2998;48.206;16.394;2023-03-01T00:58:03;27.33;;;18.00;;
5945;SDS011;2998;48.206;16.394;2023-03-01T01:00:31;31.90;;;19.60;;
5945;SDS011;2998;48.206;16.394;2023-03-01T01:03:01;31.00;;;19.53;;
5945;SDS011;2998;48.206;16.394;2023-03-01T01:05:29;33.90;;;20.83;;
5945;SDS011;2998;48.206;16.394;2023-03-01T01:07:57;32.00;;;19.17;;
5945;SDS011;2998;48.206;16.394;2023-03-01T01:10:25;37.00;;;20.00;;
5945;SDS011;2998;48.206;16.394;2023-03-01T01:12:53;29.97;;;18.17;;
5945;SDS011;2998;48.206;16.394;2023-03-01T01:15:21;36.40;;;21.20;;
5945;SDS011;2998;48.206;16.394;2023-03-01T01:17:49;32.80;;;20.20;;
5945;SDS011;2998;48.206;16.394;2023-03-01T01:20:18;37.07;;;20.03;;
5945;SDS011;2998;48.206;16.394;2023-03-01T01:22:46;34.43;;;18.77;;
5945;SDS011;2998;48.206;16.394;2023-03-01T01:25:14;29.20;;;19.50;;
5945;SDS011;2998;48.206;16.394;2023-03-01T01:27:42;35.23;;;21.40;;
5945;SDS011;2998;48.206;16.394;2023-03-01T01:30:11;35.50;;;20.70;;
5945;SDS011;2998;48.206;16.394;2023-03-01T01:32:39;34.20;;;20.00;;
5945;SDS011;2998;48.206;16.394;2023-03-01T01:35:07;34.37;;;21.17;;
5945;SDS011;2998;48.206;16.394;2023-03-01T01:37:37;33.13;;;19.87;;
5945;SDS011;2998;48.206;16.394;2023-03-01T01:40:05;30.17;;;19.30;;
5945;SDS011;2998;48.206;16.394;2023-03-01T01:42:33;35.33;;;21.03;;
5945;SDS011;2998;48.206;16.394;2023-03-01T01:47:57;33.30;;;20.33;;
5945;SDS011;2998;48.206;16.394;2023-03-01T01:50:28;35.67;;;21.77;;
5945;SDS011;2998;48.206;16.394;2023-03-01T01:53:10;42.83;;;22.30;;
5945;SDS011;2998;48.206;16.394;2023-03-01T01:55:41;55.17;;;21.03;;
5945;SDS011;2998;48.206;16.394;2023-03-01T01:58:11;34.80;;;20.10;;
5945;SDS011;2998;48.206;16.394;2023-03-01T02:00:41;32.27;;;21.30;;
5945;SDS011;2998;48.206;16.394;2023-03-01T02:03:10;37.80;;;21.80;;
5945;SDS011;2998;48.206;16.394;2023-03-01T02:05:40;33.13;;;20.10;;
5945;SDS011;2998;48.206;16.394;2023-03-01T02:08:22;32.63;;;20.07;;
5945;SDS011;2998;48.206;16.394;2023-03-01T02:10:52;33.87;;;20.80;;
5945;SDS011;2998;48.206;16.394;2023-03-01T02:13:21;29.80;;;19.70;;
5945;SDS011;2998;48.206;16.394;2023-03-01T02:15:49;36.57;;;21.40;;
5945;SDS011;2998;48.206;16.394;2023-03-01T02:18:18;37.33;;;21.47;;
5945;SDS011;2998;48.206;16.394;2023-03-01T02:20:50;28.93;;;18.83;;
5945;SDS011;2998;48.206;16.394;2023-03-01T02:23:24;37.37;;;21.10;;
5945;SDS011;2998;48.206;16.394;2023-03-01T02:25:54;38.93;;;22.20;;
5945;SDS011;2998;48.206;16.394;2023-03-01T02:28:32;38.23;;;20.60;;
5945;SDS011;2998;48.206;16.394;2023-03-01T02:31:02;32.93;;;19.97;;
5945;SDS011;2998;48.206;16.394;2023-03-01T02:33:48;32.23;;;19.40;;
5945;SDS011;2998;48.206;16.394;2023-03-01T02:36:17;37.70;;;22.50;;
5945;SDS011;2998;48.206;16.394;2023-03-01T02:38:46;33.77;;;20.93;;
5945;SDS011;2998;48.206;16.394;2023-03-01T02:41:16;34.90;;;21.83;;
5945;SDS011;2998;48.206;16.394;2023-03-01T02:43:46;44.43;;;22.17;;
5945;SDS011;2998;48.206;16.394;2023-03-01T02:46:15;37.17;;;22.10;;
5945;SDS011;2998;48.206;16.394;2023-03-01T02:48:45;33.50;;;20.57;;
5945;SDS011;2998;48.206;16.394;2023-03-01T02:54:15;54.80;;;21.27;;
5945;SDS011;2998;48.206;16.394;2023-03-01T02:56:46;51.93;;;28.73;;
5945;SDS011;2998;48.206;16.394;2023-03-01T02:59:18;50.03;;;27.40;;
5945;SDS011;2998;48.206;16.394;2023-03-01T03:01:47;35.77;;;22.60;;
5945;SDS011;2998;48.206;16.394;2023-03-01T03:04:16;33.63;;;20.57;;
5945;SDS011;2998;48.206;16.394;2023-03-01T03:06:45;35.60;;;20.37;;
5945;SDS011;2998;48.206;16.394;2023-03-01T03:09:14;35.17;;;20.47;;
5945;SDS011;2998;48.206;16.394;2023-03-01T03:11:43;61.20;;;29.90;;
5945;SDS011;2998;48.206;16.394;2023-03-01T03:14:11;48.33;;;24.87;;
5945;SDS011;2998;48.206;16.394;2023-03-01T03:16:42;38.30;;;21.90;;
5945;SDS011;2998;48.206;16.394;2023-03-01T03:19:11;36.00;;;20.43;;
5945;SDS011;2998;48.206;16.394;2023-03-01T03:21:39;34.53;;;22.27;;
5945;SDS011;2998;48.206;16.394;2023-03-01T03:24:07;38.77;;;20.47;;
5945;SDS011;2998;48.206;16.394;2023-03-01T03:26:35;34.93;;;20.73;;
5945;SDS011;2998;48.206;16.394;2023-03-01T03:29:03;39.03;;;22.37;;
5945;SDS011;2998;48.206;16.394;2023-03-01T03:31:31;32.40;;;20.57;;
5945;SDS011;2998;48.206;16.394;2023-03-01T03:34:00;38.63;;;20.80;;
5945;SDS011;2998;48.206;16.394;2023-03-01T03:36:28;37.77;;;20.83;;
5945;SDS011;2998;48.206;16.394;2023-03-01T03:38:57;39.63;;;21.33;;
5945;SDS011;2998;48.206;16.394;2023-03-01T03:41:25;36.83;;;20.90;;
5945;SDS011;2998;48.206;16.394;2023-03-01T03:43:53;36.60;;;20.37;;
5945;SDS011;2998;48.206;16.394;2023-03-01T03:46:21;30.93;;;19.73;;
5945;SDS011;2998;48.206;16.394;2023-03-01T03:48:49;33.10;;;20.47;;
5945;SDS011;2998;48.206;16.394;2023-03-01T03:51:18;36.00;;;20.40;;
5945;SDS011;2998;48.206;16.394;2023-03-01T03:53:49;31.83;;;19.97;;
5945;SDS011;2998;48.206;16.394;2023-03-01T03:56:17;27.73;;;20.33;;
5945;SDS011;2998;48.206;16.394;2023-03-01T03:58:44;33.57;;;20.53;;
5945;SDS011;2998;48.206;16.394;2023-03-01T04:01:12;33.70;;;21.10;;
5945;SDS011;2998;48.206;16.394;2023-03-01T04:03:40;36.27;;;19.90;;
5945;SDS011;2998;48.206;16.394;2023-03-01T04:06:13;32.67;;;19.77;;
5945;SDS011;2998;48.206;16.394;2023-03-01T04:08:42;35.40;;;20.33;;
5945;SDS011;2998;48.206;16.394;2023-03-01T04:11:10;36.37;;;19.60;;
5945;SDS011;2998;48.206;16.394;2023-03-01T04:13:54;42.17;;;20.97;;
5945;SDS011;2998;48.206;16.394;2023-03-01T04:16:23;30.57;;;20.03;;
5945;SDS011;2998;48.206;16.394;2023-03-01T04:18:52;40.43;;;22.73;;
5945;SDS011;2998;48.206;16.394;2023-03-01T04:21:21;35.93;;;22.67;;
5945;SDS011;2998;48.206;16.394;2023-03-01T04:23:50;33.53;;;21.30;;
5945;SDS011;2998;48.206;16.394;2023-03-01T04:26:20;37.10;;;21.93;;
5945;SDS011;2998;48.206;16.394;2023-03-01T04:28:48;36.67;;;21.00;;
5945;SDS011;2998;48.206;16.394;2023-03-01T04:31:17;37.13;;;20.37;;
5945;SDS011;2998;48.206;16.394;2023-03-01T04:33:48;34.90;;;21.70;;
5945;SDS011;2998;48.206;16.394;2023-03-01T04:36:18;35.77;;;22.03;;
5945;SDS011;2998;48.206;16.394;2023-03-01T04:38:47;42.50;;;22.87;;
5945;SDS011;2998;48.206;16.394;2023-03-01T04:41:16;40.33;;;23.00;;
5945;SDS011;2998;48.206;16.394;2023-03-01T04:43:45;37.20;;;22.60;;
5945;SDS011;2998;48.206;16.394;2023-03-01T04:46:15;36.53;;;22.07;;
5945;SDS011;2998;48.206;16.394;2023-03-01T04:48:45;38.73;;;20.90;;
5945;SDS011;2998;48.206;16.394;2023-03-01T04:51:14;31.10;;;21.20;;
5945;SDS011;2998;48.206;16.394;2023-03-01T04:53:43;37.90;;;22.43;;
5945;SDS011;2998;48.206;16.394;2023-03-01T04:56:12;40.23;;;23.10;;
5945;SDS011;2998;48.206;16.394;2023-03-01T04:58:42;44.87;;;21.70;;
5945;SDS011;2998;48.206;16.394;2023-03-01T05:01:10;37.20;;;23.50;;
5945;SDS011;2998;48.206;16.394;2023-03-01T05:03:42;37.13;;;21.93;;
5945;SDS011;2998;48.206;16.394;2023-03-01T05:06:11;35.20;;;22.97;;
5945;SDS011;2998;48.206;16.394;2023-03-01T05:08:39;43.83;;;23.00;;
5945;SDS011;2998;48.206;16.394;2023-03-01T05:11:10;39.90;;;22.67;;
5945;SDS011;2998;48.206;16.394;2023-03-01T05:13:38;35.90;;;22.20;;
5945;SDS011;2998;48.206;16.394;2023-03-01T05:16:08;36.60;;;24.70;;
5945;SDS011;2998;48.206;16.394;2023-03-01T05:18:38;38.90;;;24.30;;
5945;SDS011;2998;48.206;16.394;2023-03-01T05:21:07;35.57;;;21.90;;
5945;SDS011;2998;48.206;16.394;2023-03-01T05:23:36;40.00;;;22.70;;
5945;SDS011;2998;48.206;16.394;2023-03-01T05:26:05;34.83;;;22.20;;
5945;SDS011;2998;48.206;16.394;2023-03-01T05:28:51;38.27;;;23.37;;
5945;SDS011;2998;48.206;16.394;2023-03-01T05:31:24;40.00;;;23.40;;
5945;SDS011;2998;48.206;16.394;2023-03-01T05:33:52;36.77;;;22.80;;
5945;SDS011;2998;48.206;16.394;2023-03-01T05:36:20;48.23;;;22.90;;
5945;SDS011;2998;48.206;16.394;2023-03-01T05:38:48;40.80;;;22.60;;
5945;SDS011;2998;48.206;16.394;2023-03-01T05:41:16;40.10;;;23.90;;
5945;SDS011;2998;48.206;16.394;2023-03-01T05:43:44;35.77;;;22.60;;
5945;SDS011;2998;48.206;16.394;2023-03-01T05:46:12;46.87;;;26.10;;
5945;SDS011;2998;48.206;16.394;2023-03-01T05:48:43;39.53;;;24.23;;
5945;SDS011;2998;48.206;16.394;2023-03-01T05:51:11;44.23;;;23.63;;
5945;SDS011;2998;48.206;16.394;2023-03-01T05:53:39;45.27;;;23.53;;
5945;SDS011;2998;48.206;16.394;2023-03-01T05:56:08;43.57;;;25.83;;
5945;SDS011;2998;48.206;16.394;2023-03-01T05:58:37;41.20;;;24.03;;
5945;SDS011;2998;48.206;16.394;2023-03-01T06:01:05;39.50;;;23.20;;
5945;SDS011;2998;48.206;16.394;2023-03-01T06:03:33;44.67;;;23.50;;
5945;SDS011;2998;48.206;16.394;2023-03-01T06:06:02;38.67;;;21.90;;
5945;SDS011;2998;48.206;16.394;2023-03-01T06:08:31;45.93;;;25.60;;
5945;SDS011;2998;48.206;16.394;2023-03-01T06:10:58;41.43;;;23.00;;
5945;SDS011;2998;48.206;16.394;2023-03-01T06:13:26;40.87;;;23.43;;
5945;SDS011;2998;48.206;16.394;2023-03-01T06:15:55;48.70;;;23.10;;
5945;SDS011;2998;48.206;16.394;2023-03-01T06:18:23;42.20;;;26.40;;
5945;SDS011;2998;48.206;16.394;2023-03-01T06:20:54;45.07;;;25.03;;
5945;SDS011;2998;48.206;16.394;2023-03-01T06:23:24;56.90;;;23.03;;
5945;SDS011;2998;48.206;16.394;2023-03-01T06:25:52;44.33;;;23.80;;
5945;SDS011;2998;48.206;16.394;2023-03-01T06:28:21;39.27;;;24.80;;
5945;SDS011;2998;48.206;16.394;2023-03-01T06:30:49;45.57;;;24.30;;
5945;SDS011;2998;48.206;16.394;2023-03-01T06:33:18;43.03;;;22.77;;
5945;SDS011;2998;48.206;16.394;2023-03-01T06:35:46;43.63;;;25.13;;
5945;SDS011;2998;48.206;16.394;2023-03-01T06:38:14;44.77;;;23.67;;
5945;SDS011;2998;48.206;16.394;2023-03-01T06:40:46;40.37;;;23.07;;
5945;SDS011;2998;48.206;16.394;2023-03-01T06:43:19;46.60;;;22.63;;
5945;SDS011;2998;48.206;16.394;2023-03-01T06:45:47;44.23;;;24.00;;
5945;SDS011;2998;48.206;16.394;2023-03-01T06:48:15;39.47;;;22.17;;
5945;SDS011;2998;48.206;16.394;2023-03-01T06:50:43;35.70;;;21.73;;
5945;SDS011;2998;48.206;16.394;2023-03-01T06:53:11;45.03;;;23.50;;
5945;SDS011;2998;48.206;16.394;2023-03-01T06:55:39;38.20;;;22.73;;
5945;SDS011;2998;48.206;16.394;2023-03-01T06:58:09;41.53;;;23.40;;
5945;SDS011;2998;48.206;16.394;2023-03-01T07:00:37;39.73;;;23.17;;
5945;SDS011;2998;48.206;16.394;2023-03-01T07:03:07;41.53;;;23.27;;
5945;SDS011;2998;48.206;16.394;2023-03-01T07:05:35;34.57;;;22.23;;
5945;SDS011;2998;48.206;16.394;2023-03-01T07:08:04;37.47;;;22.53;;
5945;SDS011;2998;48.206;16.394;2023-03-01T07:10:32;37.30;;;21.57;;
5945;SDS011;2998;48.206;16.394;2023-03-01T07:13:00;38.37;;;21.80;;
5945;SDS011;2998;48.206;16.394;2023-03-01T07:15:29;30.30;;;21.10;;
5945;SDS011;2998;48.206;16.394;2023-03-01T07:17:57;31.93;;;20.53;;
5945;SDS011;2998;48.206;16.394;2023-03-01T07:20:25;36.80;;;20.70;;
5945;SDS011;2998;48.206;16.394;2023-03-01T07:22:53;34.60;;;22.27;;
5945;SDS011;2998;48.206;16.394;2023-03-01T07:25:22;39.33;;;21.33;;
5945;SDS011;2998;48.206;16.394;2023-03-01T07:27:50;30.60;;;20.47;;
5945;SDS011;2998;48.206;16.394;2023-03-01T07:30:19;32.23;;;19.07;;
5945;SDS011;2998;48.206;16.394;2023-03-01T07:32:48;36.43;;;22.43;;
5945;SDS011;2998;48.206;16.394;2023-03-01T07:35:18;32.57;;;20.60;;
5945;SDS011;2998;48.206;16.394;2023-03-01T07:37:46;32.63;;;19.60;;
5945;SDS011;2998;48.206;16.394;2023-03-01T07:40:14;28.20;;;19.37;;
5945;SDS011;2998;48.206;16.394;2023-03-01T07:42:43;42.93;;;20.40;;
5945;SDS011;2998;48.206;16.394;2023-03-01T07:45:11;34.80;;;18.47;;
5945;SDS011;2998;48.206;16.394;2023-03-01T07:47:40;26.87;;;18.33;;
5945;SDS011;2998;48.206;16.394;2023-03-01T07:50:10;32.97;;;18.80;;
5945;SDS011;2998;48.206;16.394;2023-03-01T07:52:39;27.53;;;15.87;;
5945;SDS011;2998;48.206;16.394;2023-03-01T07:55:08;42.87;;;15.10;;
5945;SDS011;2998;48.206;16.394;2023-03-01T07:57:36;25.37;;;16.40;;
5945;SDS011;2998;48.206;16.394;2023-03-01T08:00:04;27.40;;;16.67;;
5945;SDS011;2998;48.206;16.394;2023-03-01T08:02:33;34.03;;;16.60;;
5945;SDS011;2998;48.206;16.394;2023-03-01T08:05:02;22.47;;;16.30;;
5945;SDS011;2998;48.206;16.394;2023-03-01T08:07:32;28.53;;;19.63;;
5945;SDS011;2998;48.206;16.394;2023-03-01T08:10:00;24.33;;;15.27;;
5945;SDS011;2998;48.206;16.394;2023-03-01T08:12:29;31.30;;;20.70;;
5945;SDS011;2998;48.206;16.394;2023-03-01T08:14:57;26.63;;;18.37;;
5945;SDS011;2998;48.206;16.394;2023-03-01T08:17:25;27.03;;;16.20;;
5945;SDS011;2998;48.206;16.394;2023-03-01T08:19:53;30.13;;;16.07;;
5945;SDS011;2998;48.206;16.394;2023-03-01T08:22:24;22.07;;;14.80;;
5945;SDS011;2998;48.206;16.394;2023-03-01T08:24:53;21.97;;;14.17;;
5945;SDS011;2998;48.206;16.394;2023-03-01T08:27:22;21.07;;;15.57;;
5945;SDS011;2998;48.206;16.394;2023-03-01T08:29:51;25.40;;;15.53;;
5945;SDS011;2998;48.206;16.394;2023-03-01T08:32:19;16.03;;;13.10;;
5945;SDS011;2998;48.206;16.394;2023-03-01T08:34:47;27.53;;;15.53;;
5945;SDS011;2998;48.206;16.394;2023-03-01T08:37:15;23.40;;;15.07;;
5945;SDS011;2998;48.206;16.394;2023-03-01T08:39:43;23.70;;;13.87;;
5945;SDS011;2998;48.206;16.394;2023-03-01T08:42:13;18.63;;;13.80;;
5945;SDS011;2998;48.206;16.394;2023-03-01T08:44:41;19.60;;;13.00;;
5945;SDS011;2998;48.206;16.394;2023-03-01T08:47:12;19.90;;;14.20;;
5945;SDS011;2998;48.206;16.394;2023-03-01T08:49:40;21.50;;;14.57;;
5945;SDS011;2998;48.206;16.394;2023-03-01T08:52:07;24.93;;;13.73;;
5945;SDS011;2998;48.206;16.394;2023-03-01T08:54:35;26.93;;;14.50;;
5945;SDS011;2998;48.206;16.394;2023-03-01T08:57:04;17.67;;;12.90;;
5945;SDS011;2998;48.206;16.394;2023-03-01T08:59:33;18.97;;;12.67;;
5945;SDS011;2998;48.206;16.394;2023-03-01T09:02:04;15.10;;;12.20;;
5945;SDS011;2998;48.206;16.394;2023-03-01T09:04:32;18.20;;;13.10;;
5945;SDS011;2998;48.206;16.394;2023-03-01T09:07:00;15.90;;;12.17;;
5945;SDS011;2998;48.206;16.394;2023-03-01T09:09:28;20.10;;;12.97;;
5945;SDS011;2998;48.206;16.394;2023-03-01T09:11:56;17.83;;;11.40;;
5945;SDS011;2998;48.206;16.394;2023-03-01T09:14:24;18.63;;;12.37;;
5945;SDS011;2998;48.206;16.394;2023-03-01T09:16:53;20.93;;;13.50;;
5945;SDS011;2998;48.206;16.394;2023-03-01T09:19:22;18.23;;;12.17;;
5945;SDS011;2998;48.206;16.394;2023-03-01T09:21:52;15.30;;;11.50;;
5945;SDS011;2998;48.206;16.394;2023-03-01T09:24:23;23.33;;;12.37;;
5945;SDS011;2998;48.206;16.394;2023-03-01T09:26:53;19.83;;;12.00;;
5945;SDS011;2998;48.206;16.394;2023-03-01T09:29:21;15.37;;;11.97;;
5945;SDS011;2998;48.206;16.394;2023-03-01T09:31:49;20.20;;;10.97;;
5945;SDS011;2998;48.206;16.394;2023-03-01T09:34:19;11.50;;;9.87;;
5945;SDS011;2998;48.206;16.394;2023-03-01T09:36:49;17.40;;;11.20;;
5945;SDS011;2998;48.206;16.394;2023-03-01T09:39:17;14.63;;;10.97;;
5945;SDS011;2998;48.206;16.394;2023-03-01T09:41:48;15.13;;;10.33;;
5945;SDS011;2998;48.206;16.394;2023-03-01T09:44:23;22.00;;;11.67;;
5945;SDS011;2998;48.206;16.394;2023-03-01T09:46:57;18.17;;;11.53;;
5945;SDS011;2998;48.206;16.394;2023-03-01T09:49:27;15.20;;;10.20;;
5945;SDS011;2998;48.206;16.394;2023-03-01T09:51:58;18.67;;;11.57;;
5945;SDS011;2998;48.206;16.394;2023-03-01T09:54:28;23.60;;;15.20;;
5945;SDS011;2998;48.206;16.394;2023-03-01T09:56:59;16.50;;;12.83;;
5945;SDS011;2998;48.206;16.394;2023-03-01T09:59:33;19.50;;;12.00;;
5945;SDS011;2998;48.206;16.394;2023-03-01T10:02:11;20.03;;;11.50;;
5945;SDS011;2998;48.206;16.394;2023-03-01T10:04:51;16.30;;;10.30;;
5945;SDS011;2998;48.206;16.394;2023-03-01T10:07:27;18.30;;;10.97;;
5945;SDS011;2998;48.206;16.394;2023-03-01T10:09:58;20.23;;;12.07;;
5945;SDS011;2998;48.206;16.394;2023-03-01T10:12:27;14.70;;;11.00;;
5945;SDS011;2998;48.206;16.394;2023-03-01T10:15:02;14.40;;;11.10;;
5945;SDS011;2998;48.206;16.394;2023-03-01T10:17:34;13.57;;;10.63;;
5945;SDS011;2998;48.206;16.394;2023-03-01T10:20:16;13.43;;;10.13;;
5945;SDS011;2998;48.206;16.394;2023-03-01T10:22:46;13.43;;;10.40;;
5945;SDS011;2998;48.206;16.394;2023-03-01T10:25:21;16.30;;;9.80;;
5945;SDS011;2998;48.206;16.394;2023-03-01T10:27:59;11.97;;;10.20;;
5945;SDS011;2998;48.206;16.394;2023-03-01T10:30:32;14.83;;;11.60;;
5945;SDS011;2998;48.206;16.394;2023-03-01T10:33:06;16.87;;;12.00;;
5945;SDS011;2998;48.206;16.394;2023-03-01T10:35:44;12.77;;;10.43;;
5945;SDS011;2998;48.206;16.394;2023-03-01T10:38:14;16.50;;;11.73;;
5945;SDS011;2998;48.206;16.394;2023-03-01T10:40:53;16.80;;;11.30;;
5945;SDS011;2998;48.206;16.394;2023-03-01T10:43:23;12.30;;;9.60;;
5945;SDS011;2998;48.206;16.394;2023-03-01T10:45:51;14.77;;;11.87;;
5945;SDS011;2998;48.206;16.394;2023-03-01T10:48:20;19.23;;;10.87;;
5945;SDS011;2998;48.206;16.394;2023-03-01T10:51:04;18.73;;;12.03;;
5945;SDS011;2998;48.206;16.394;2023-03-01T10:53:34;17.80;;;11.27;;
5945;SDS011;2998;48.206;16.394;2023-03-01T10:56:04;27.03;;;10.60;;
5945;SDS011;2998;48.206;16.394;2023-03-01T10:58:34;18.00;;;11.53;;
5945;SDS011;2998;48.206;16.394;2023-03-01T11:01:03;15.40;;;10.90;;
5945;SDS011;2998;48.206;16.394;2023-03-01T11:03:32;16.90;;;12.20;;
5945;SDS011;2998;48.206;16.394;2023-03-01T11:06:04;15.30;;;11.73;;
5945;SDS011;2998;48.206;16.394;2023-03-01T11:08:38;17.90;;;11.93;;
5945;SDS011;2998;48.206;16.394;2023-03-01T11:11:13;21.37;;;11.80;;
5945;SDS011;2998;48.206;16.394;2023-03-01T11:13:49;24.67;;;12.33;;
5945;SDS011;2998;48.206;16.394;2023-03-01T11:16:27;17.00;;;10.23;;
5945;SDS011;2998;48.206;16.394;2023-03-01T11:18:58;17.47;;;11.67;;
5945;SDS011;2998;48.206;16.394;2023-03-01T11:21:29;19.27;;;12.60;;
5945;SDS011;2998;48.206;16.394;2023-03-01T11:24:00;26.53;;;11.80;;
5945;SDS011;2998;48.206;16.394;2023-03-01T11:26:29;19.90;;;11.90;;
5945;SDS011;2998;48.206;16.394;2023-03-01T11:29:00;21.70;;;12.83;;
5945;SDS011;2998;48.206;16.394;2023-03-01T11:31:31;18.77;;;10.10;;
5945;SDS011;2998;48.206;16.394;2023-03-01T11:34:03;17.00;;;10.73;;
5945;SDS011;2998;48.206;16.394;2023-03-01T11:36:39;61.97;;;15.17;;
5945;SDS011;2998;48.206;16.394;2023-03-01T11:39:15;17.07;;;12.93;;
5945;SDS011;2998;48.206;16.394;2023-03-01T11:41:47;16.73;;;12.13;;
5945;SDS011;2998;48.206;16.394;2023-03-01T11:44:18;17.13;;;12.10;;
5945;SDS011;2998;48.206;16.394;2023-03-01T11:46:52;17.83;;;11.50;;
5945;SDS011;2998;48.206;16.394;2023-03-01T11:49:44;16.87;;;11.53;;
5945;SDS011;2998;48.206;16.394;2023-03-01T11:52:25;16.00;;;12.80;;
5945;SDS011;2998;48.206;16.394;2023-03-01T11:55:09;19.63;;;12.57;;
5945;SDS011;2998;48.206;16.394;2023-03-01T11:57:49;25.50;;;13.73;;
5945;SDS011;2998;48.206;16.394;2023-03-01T12:00:42;16.10;;;11.93;;
5945;SDS011;2998;48.206;16.394;2023-03-01T12:03:22;21.03;;;11.23;;
5945;SDS011;2998;48.206;16.394;2023-03-01T12:08:59;19.33;;;13.70;;
5945;SDS011;2998;48.206;16.394;2023-03-01T12:11:38;21.37;;;13.37;;
5945;SDS011;2998;48.206;16.394;2023-03-01T12:20:00;19.23;;;14.07;;
5945;SDS011;2998;48.206;16.394;2023-03-01T12:22:38;21.43;;;14.50;;
5945;SDS011;2998;48.206;16.394;2023-03-01T12:25:17;21.20;;;15.83;;
5945;SDS011;2998;48.206;16.394;2023-03-01T12:31:16;27.40;;;15.27;;
5945;SDS011;2998;48.206;16.394;2023-03-01T12:34:31;22.83;;;17.60;;
5945;SDS011;2998;48.206;16.394;2023-03-01T12:37:11;22.83;;;14.60;;
5945;SDS011;2998;48.206;16.394;2023-03-01T12:39:49;23.97;;;16.40;;
5945;SDS011;2998;48.206;16.394;2023-03-01T12:42:25;29.57;;;15.63;;
5945;SDS011;2998;48.206;16.394;2023-03-01T12:45:01;21.90;;;15.17;;
5945;SDS011;2998;48.206;16.394;2023-03-01T12:47:57;27.50;;;15.50;;
5945;SDS011;2998;48.206;16.394;2023-03-01T12:50:36;23.33;;;15.70;;
5945;SDS011;2998;48.206;16.394;2023-03-01T12:53:21;26.13;;;17.47;;
5945;SDS011;2998;48.206;16.394;2023-03-01T12:55:51;21.37;;;16.13;;
5945;SDS011;2998;48.206;16.394;2023-03-01T12:58:24;48.87;;;21.97;;
5945;SDS011;2998;48.206;16.394;2023-03-01T13:01:16;22.60;;;16.30;;
5945;SDS011;2998;48.206;16.394;2023-03-01T13:03:56;24.53;;;16.07;;
5945;SDS011;2998;48.206;16.394;2023-03-01T13:06:32;23.83;;;16.57;;
5945;SDS011;2998;48.206;16.394;2023-03-01T13:09:11;26.63;;;17.60;;
5945;SDS011;2998;48.206;16.394;2023-03-01T13:11:44;24.80;;;17.00;;
5945;SDS011;2998;48.206;16.394;2023-03-01T13:17:07;26.50;;;17.53;;
5945;SDS011;2998;48.206;16.394;2023-03-01T13:19:59;26.00;;;18.83;;
5945;SDS011;2998;48.206;16.394;2023-03-01T13:22:28;23.00;;;16.27;;
5945;SDS011;2998;48.206;16.394;2023-03-01T13:25:02;23.50;;;16.30;;
5945;SDS011;2998;48.206;16.394;2023-03-01T13:27:40;25.00;;;17.00;;
5945;SDS011;2998;48.206;16.394;2023-03-01T13:39:28;20.73;;;15.80;;
5945;SDS011;2998;48.206;16.394;2023-03-01T13:41:59;20.97;;;15.70;;
5945;SDS011;2998;48.206;16.394;2023-03-01T13:44:30;21.53;;;15.87;;
5945;SDS011;2998;48.206;16.394;2023-03-01T13:47:03;22.10;;;15.00;;
5945;SDS011;2998;48.206;16.394;2023-03-01T13:49:36;23.63;;;15.97;;
5945;SDS011;2998;48.206;16.394;2023-03-01T13:52:34;26.77;;;17.87;;
5945;SDS011;2998;48.206;16.394;2023-03-01T13:55:05;25.50;;;16.90;;
5945;SDS011;2998;48.206;16.394;2023-03-01T13:57:42;24.07;;;16.23;;
5945;SDS011;2998;48.206;16.394;2023-03-01T14:00:24;26.53;;;16.40;;
5945;SDS011;2998;48.206;16.394;2023-03-01T14:03:02;24.37;;;17.37;;
5945;SDS011;2998;48.206;16.394;2023-03-01T14:05:32;17.80;;;15.67;;
5945;SDS011;2998;48.206;16.394;2023-03-01T14:08:00;24.43;;;16.67;;
5945;SDS011;2998;48.206;16.394;2023-03-01T14:10:29;24.30;;;16.73;;
5945;SDS011;2998;48.206;16.394;2023-03-01T14:13:05;19.77;;;15.10;;
5945;SDS011;2998;48.206;16.394;2023-03-01T14:15:42;20.90;;;14.73;;
5945;SDS011;2998;48.206;16.394;2023-03-01T14:18:18;20.73;;;15.50;;
5945;SDS011;2998;48.206;16.394;2023-03-01T14:20:49;19.97;;;15.10;;
5945;SDS011;2998;48.206;16.394;2023-03-01T14:23:19;25.27;;;17.30;;
5945;SDS011;2998;48.206;16.394;2023-03-01T14:25:49;24.37;;;17.50;;
5945;SDS011;2998;48.206;16.394;2023-03-01T14:28:19;30.90;;;16.07;;
5945;SDS011;2998;48.206;16.394;2023-03-01T14:30:49;22.03;;;16.43;;
5945;SDS011;2998;48.206;16.394;2023-03-01T14:33:20;26.77;;;17.07;;
5945;SDS011;2998;48.206;16.394;2023-03-01T14:35:57;24.10;;;15.80;;
5945;SDS011;2998;48.206;16.394;2023-03-01T14:38:33;19.73;;;15.60;;
5945;SDS011;2998;48.206;16.394;2023-03-01T14:41:03;27.00;;;17.83;;
5945;SDS011;2998;48.206;16.394;2023-03-01T14:43:33;24.60;;;16.03;;
5945;SDS011;2998;48.206;16.394;2023-03-01T14:46:02;20.33;;;16.03;;
5945;SDS011;2998;48.206;16.394;2023-03-01T14:48:31;18.20;;;14.33;;
5945;SDS011;2998;48.206;16.394;2023-03-01T14:50:59;29.93;;;16.40;;
5945;SDS011;2998;48.206;16.394;2023-03-01T14:53:28;20.97;;;15.50;;
5945;SDS011;2998;48.206;16.394;2023-03-01T14:56:15;23.23;;;16.30;;
5945;SDS011;2998;48.206;16.394;2023-03-01T14:58:43;26.57;;;16.27;;
5945;SDS011;2998;48.206;16.394;2023-03-01T15:01:14;24.53;;;15.83;;
5945;SDS011;2998;48.206;16.394;2023-03-01T15:03:46;26.20;;;17.00;;
5945;SDS011;2998;48.206;16.394;2023-03-01T15:06:15;24.47;;;16.97;;
5945;SDS011;2998;48.206;16.394;2023-03-01T15:08:45;24.27;;;17.70;;
5945;SDS011;2998;48.206;16.394;2023-03-01T15:11:19;26.07;;;18.50;;
5945;SDS011;2998;48.206;16.394;2023-03-01T15:13:50;28.10;;;17.03;;
5945;SDS011;2998;48.206;16.394;2023-03-01T15:16:19;29.97;;;16.30;;
5945;SDS011;2998;48.206;16.394;2023-03-01T15:18:51;25.33;;;17.90;;
5945;SDS011;2998;48.206;16.394;2023-03-01T15:21:21;26.30;;;17.37;;
5945;SDS011;2998;48.206;16.394;2023-03-01T15:23:51;23.63;;;16.33;;
5945;SDS011;2998;48.206;16.394;2023-03-01T15:26:22;26.30;;;18.17;;
5945;SDS011;2998;48.206;16.394;2023-03-01T15:28:52;24.53;;;17.00;;